sensor_id;sensor_type;location;lat;lon;timestamp;pressure;altitude;pressure_sealevel;temperature;humidity
28935;BME280;16044;52.726;-2.108;2024-03-08T00:01:57;100597.63;;;3.65;100.00
28935;BME280;16044;52.726;-2.108;2024-03-08T00:04:27;100587.75;;;3.66;100.00
28935;BME280;16044;52.726;-2.108;2024-03-08T00:06:57;100591.16;;;3.68;100.00
28935;BME280;16044;52.726;-2.108;2024-03-08T00:09:28;100587.50;;;3.69;100.00
28935;BME280;16044;52.726;-2.108;2024-03-08T00:11:58;100589.31;;;3.68;100.00
28935;BME280;16044;52.726;-2.108;2024-03-08T00:14:28;100576.06;;;3.67;100.00
28935;BME280;16044;52.726;-2.108;2024-03-08T00:17:01;100569.09;;;3.64;100.00
28935;BME280;16044;52.726;-2.108;2024-03-08T00:19:32;100572.31;;;3.58;100.00
28935;BME280;16044;52.726;-2.108;2024-03-08T00:22:02;100569.75;;;3.57;100.00
28935;BME280;16044;52.726;-2.108;2024-03-08T00:24:33;100563.44;;;3.58;100.00
28935;BME280;16044;52.726;-2.108;2024-03-08T00:27:04;100553.94;;;3.54;100.00
28935;BME280;16044;52.726;-2.108;2024-03-08T00:29:35;100548.72;;;3.52;100.00
28935;BME280;16044;52.726;-2.108;2024-03-08T00:32:08;100546.03;;;3.52;100.00
28935;BME280;16044;52.726;-2.108;2024-03-08T00:34:39;100548.66;;;3.42;100.00
28935;BME280;16044;52.726;-2.108;2024-03-08T00:37:10;100544.13;;;3.43;100.00
28935;BME280;16044;52.726;-2.108;2024-03-08T00:39:40;100545.56;;;3.47;100.00
28935;BME280;16044;52.726;-2.108;2024-03-08T00:42:10;100543.00;;;3.45;100.00
28935;BME280;16044;52.726;-2.108;2024-03-08T00:44:41;100545.69;;;3.45;100.00
28935;BME280;16044;52.726;-2.108;2024-03-08T00:47:14;100543.72;;;3.47;100.00
28935;BME280;16044;52.726;-2.108;2024-03-08T00:49:44;100532.63;;;3.52;100.00
28935;BME280;16044;52.726;-2.108;2024-03-08T00:52:15;100533.22;;;3.56;100.00
28935;BME280;16044;52.726;-2.108;2024-03-08T00:54:45;100531.28;;;3.58;100.00
28935;BME280;16044;52.726;-2.108;2024-03-08T00:57:15;100531.28;;;3.58;100.00
28935;BME280;16044;52.726;-2.108;2024-03-08T00:59:46;100526.75;;;3.58;100.00
28935;BME280;16044;52.726;-2.108;2024-03-08T01:02:19;100526.75;;;3.58;100.00
28935;BME280;16044;52.726;-2.108;2024-03-08T01:04:50;100524.53;;;3.63;100.00
28935;BME280;16044;52.726;-2.108;2024-03-08T01:07:20;100527.94;;;3.65;100.00
28935;BME280;16044;52.726;-2.108;2024-03-08T01:09:50;100526.81;;;3.68;100.00
28935;BME280;16044;52.726;-2.108;2024-03-08T01:12:21;100516.69;;;3.71;100.00
28935;BME280;16044;52.726;-2.108;2024-03-08T01:14:51;100518.09;;;3.76;100.00
28935;BME280;16044;52.726;-2.108;2024-03-08T01:17:24;100512.22;;;3.82;100.00
28935;BME280;16044;52.726;-2.108;2024-03-08T01:19:55;100503.78;;;3.86;100.00
28935;BME280;16044;52.726;-2.108;2024-03-08T01:22:25;100501.81;;;3.88;100.00
28935;BME280;16044;52.726;-2.108;2024-03-08T01:24:56;100508.72;;;3.91;100.00
28935;BME280;16044;52.726;-2.108;2024-03-08T01:27:27;100506.06;;;3.91;100.00
28935;BME280;16044;52.726;-2.108;2024-03-08T01:29:58;100492.94;;;3.88;100.00
28935;BME280;16044;52.726;-2.108;2024-03-08T01:32:31;100495.78;;;3.96;100.00
28935;BME280;16044;52.726;-2.108;2024-03-08T01:35:01;100496.50;;;3.98;100.00
28935;BME280;16044;52.726;-2.108;2024-03-08T01:37:32;100485.78;;;3.98;100.00
28935;BME280;16044;52.726;-2.108;2024-03-08T01:40:03;100488.31;;;4.00;100.00
28935;BME280;16044;52.726;-2.108;2024-03-08T01:42:34;100484.38;;;4.04;100.00
28935;BME280;16044;52.726;-2.108;2024-03-08T01:45:06;100492.31;;;4.05;100.00
28935;BME280;16044;52.726;-2.108;2024-03-08T01:47:40;100481.69;;;4.04;100.00
28935;BME280;16044;52.726;-2.108;2024-03-08T01:50:10;100480.59;;;4.06;100.00
28935;BME280;16044;52.726;-2.108;2024-03-08T01:52:41;100474.22;;;4.07;100.00
28935;BME280;16044;52.726;-2.108;2024-03-08T01:55:12;100468.63;;;4.10;100.00
28935;BME280;16044;52.726;-2.108;2024-03-08T01:57:45;100469.31;;;4.13;100.00
28935;BME280;16044;52.726;-2.108;2024-03-08T02:00:16;100470.28;;;4.12;100.00
28935;BME280;16044;52.726;-2.108;2024-03-08T02:02:49;100465.50;;;4.15;100.00
28935;BME280;16044;52.726;-2.108;2024-03-08T02:05:21;100460.00;;;4.17;100.00
28935;BME280;16044;52.726;-2.108;2024-03-08T02:07:51;100455.09;;;4.22;100.00
28935;BME280;16044;52.726;-2.108;2024-03-08T02:10:22;100459.47;;;4.23;100.00
28935;BME280;16044;52.726;-2.108;2024-03-08T02:12:52;100452.13;;;4.25;100.00
28935;BME280;16044;52.726;-2.108;2024-03-08T02:15:22;100452.00;;;4.26;100.00
28935;BME280;16044;52.726;-2.108;2024-03-08T02:17:55;100443.94;;;4.26;100.00
28935;BME280;16044;52.726;-2.108;2024-03-08T02:20:30;100438.72;;;4.25;100.00
28935;BME280;16044;52.726;-2.108;2024-03-08T02:23:01;100439.84;;;4.32;100.00
28935;BME280;16044;52.726;-2.108;2024-03-08T02:25:31;100430.13;;;4.31;100.00
28935;BME280;16044;52.726;-2.108;2024-03-08T02:28:03;100428.88;;;4.35;100.00
28935;BME280;16044;52.726;-2.108;2024-03-08T02:30:34;100424.91;;;4.39;100.00
28935;BME280;16044;52.726;-2.108;2024-03-08T02:33:05;100417.00;;;4.38;100.00
28935;BME280;16044;52.726;-2.108;2024-03-08T02:35:39;100409.66;;;4.40;100.00
28935;BME280;16044;52.726;-2.108;2024-03-08T02:38:12;100414.75;;;4.43;100.00
28935;BME280;16044;52.726;-2.108;2024-03-08T02:40:43;100411.94;;;4.44;100.00
28935;BME280;16044;52.726;-2.108;2024-03-08T02:43:15;100403.88;;;4.44;100.00
28935;BME280;16044;52.726;-2.108;2024-03-08T02:45:46;100400.31;;;4.44;100.00
28935;BME280;16044;52.726;-2.108;2024-03-08T02:48:17;100387.06;;;4.42;100.00
28935;BME280;16044;52.726;-2.108;2024-03-08T02:50:51;100379.16;;;4.51;100.00
28935;BME280;16044;52.726;-2.108;2024-03-08T02:53:22;100379.88;;;4.53;100.00
28935;BME280;16044;52.726;-2.108;2024-03-08T02:55:52;100372.09;;;4.49;100.00
28935;BME280;16044;52.726;-2.108;2024-03-08T02:58:23;100364.72;;;4.52;100.00
28935;BME280;16044;52.726;-2.108;2024-03-08T03:00:53;100357.38;;;4.54;100.00
28935;BME280;16044;52.726;-2.108;2024-03-08T03:03:24;100373.34;;;4.55;100.00
28935;BME280;16044;52.726;-2.108;2024-03-08T03:05:57;100350.91;;;4.56;100.00
28935;BME280;16044;52.726;-2.108;2024-03-08T03:08:28;100351.47;;;4.60;100.00
28935;BME280;16044;52.726;-2.108;2024-03-08T03:10:58;100344.41;;;4.59;100.00
28935;BME280;16044;52.726;-2.108;2024-03-08T03:13:28;100348.78;;;4.60;100.00
28935;BME280;16044;52.726;-2.108;2024-03-08T03:16:00;100349.50;;;4.62;100.00
28935;BME280;16044;52.726;-2.108;2024-03-08T03:18:30;100350.47;;;4.61;100.00
28935;BME280;16044;52.726;-2.108;2024-03-08T03:21:04;100345.81;;;4.63;100.00
28935;BME280;16044;52.726;-2.108;2024-03-08T03:23:34;100340.16;;;4.66;100.00
28935;BME280;16044;52.726;-2.108;2024-03-08T03:26:06;100339.88;;;4.69;100.00
28935;BME280;16044;52.726;-2.108;2024-03-08T03:28:39;100331.13;;;4.67;100.00
28935;BME280;16044;52.726;-2.108;2024-03-08T03:31:10;100335.22;;;4.71;100.00
28935;BME280;16044;52.726;-2.108;2024-03-08T03:33:41;100332.41;;;4.73;100.00
28935;BME280;16044;52.726;-2.108;2024-03-08T03:36:14;100326.88;;;4.74;100.00
28935;BME280;16044;52.726;-2.108;2024-03-08T03:38:44;100313.31;;;4.76;100.00
28935;BME280;16044;52.726;-2.108;2024-03-08T03:41:15;100312.47;;;4.75;100.00
28935;BME280;16044;52.726;-2.108;2024-03-08T03:43:45;100312.47;;;4.75;100.00
28935;BME280;16044;52.726;-2.108;2024-03-08T03:46:16;100302.56;;;4.76;100.00
28935;BME280;16044;52.726;-2.108;2024-03-08T03:48:46;100304.41;;;4.75;100.00
28935;BME280;16044;52.726;-2.108;2024-03-08T03:51:19;100301.44;;;4.78;100.00
28935;BME280;16044;52.726;-2.108;2024-03-08T03:53:50;100293.22;;;4.80;100.00
28935;BME280;16044;52.726;-2.108;2024-03-08T03:56:25;100298.59;;;4.80;100.00
28935;BME280;16044;52.726;-2.108;2024-03-08T03:58:56;100296.91;;;4.79;100.00
28935;BME280;16044;52.726;-2.108;2024-03-08T04:01:26;100285.03;;;4.81;100.00
28935;BME280;16044;52.726;-2.108;2024-03-08T04:03:56;100283.03;;;4.83;100.00
28935;BME280;16044;52.726;-2.108;2024-03-08T04:06:30;100287.00;;;4.79;100.00
28935;BME280;16044;52.726;-2.108;2024-03-08T04:09:00;100269.91;;;4.80;100.00
28935;BME280;16044;52.726;-2.108;2024-03-08T04:11:31;100259.75;;;4.84;100.00
28935;BME280;16044;52.726;-2.108;2024-03-08T04:14:02;100257.06;;;4.84;100.00
28935;BME280;16044;52.726;-2.108;2024-03-08T04:16:32;100263.25;;;4.84;100.00
28935;BME280;16044;52.726;-2.108;2024-03-08T04:19:03;100261.69;;;4.82;100.00
28935;BME280;16044;52.726;-2.108;2024-03-08T04:21:36;100248.13;;;4.83;100.00
28935;BME280;16044;52.726;-2.108;2024-03-08T04:24:06;100256.19;;;4.83;100.00
28935;BME280;16044;52.726;-2.108;2024-03-08T04:26:37;100246.59;;;4.81;100.00
28935;BME280;16044;52.726;-2.108;2024-03-08T04:29:08;100247.44;;;4.81;100.00
28935;BME280;16044;52.726;-2.108;2024-03-08T04:31:38;100255.22;;;4.84;100.00
28935;BME280;16044;52.726;-2.108;2024-03-08T04:34:08;100250.81;;;4.83;100.00
28935;BME280;16044;52.726;-2.108;2024-03-08T04:36:41;100239.78;;;4.86;100.00
28935;BME280;16044;52.726;-2.108;2024-03-08T04:39:12;100237.94;;;4.87;100.00
28935;BME280;16044;52.726;-2.108;2024-03-08T04:41:43;100239.66;;;4.88;100.00
28935;BME280;16044;52.726;-2.108;2024-03-08T04:44:13;100238.66;;;4.89;100.00
28935;BME280;16044;52.726;-2.108;2024-03-08T04:46:44;100244.84;;;4.89;100.00
28935;BME280;16044;52.726;-2.108;2024-03-08T04:49:15;100245.72;;;4.90;100.00
28935;BME280;16044;52.726;-2.108;2024-03-08T04:51:48;100241.06;;;4.92;100.00
28935;BME280;16044;52.726;-2.108;2024-03-08T04:54:18;100239.34;;;4.91;100.00
28935;BME280;16044;52.726;-2.108;2024-03-08T04:56:48;100242.03;;;4.91;100.00
28935;BME280;16044;52.726;-2.108;2024-03-08T04:59:18;100237.53;;;4.92;100.00
28935;BME280;16044;52.726;-2.108;2024-03-08T05:01:49;100240.22;;;4.92;100.00
28935;BME280;16044;52.726;-2.108;2024-03-08T05:04:19;100233.97;;;4.91;100.00
28935;BME280;16044;52.726;-2.108;2024-03-08T05:06:52;100244.56;;;4.93;100.00
28935;BME280;16044;52.726;-2.108;2024-03-08T05:09:22;100239.19;;;4.93;100.00
28935;BME280;16044;52.726;-2.108;2024-03-08T05:11:53;100237.53;;;4.92;100.00
28935;BME280;16044;52.726;-2.108;2024-03-08T05:14:25;100230.16;;;4.94;100.00
28935;BME280;16044;52.726;-2.108;2024-03-08T05:16:56;100229.47;;;4.92;100.00
28935;BME280;16044;52.726;-2.108;2024-03-08T05:19:27;100222.25;;;4.92;100.00
28935;BME280;16044;52.726;-2.108;2024-03-08T05:22:03;100226.78;;;4.92;100.00
28935;BME280;16044;52.726;-2.108;2024-03-08T05:24:34;100224.63;;;4.95;100.00
28935;BME280;16044;52.726;-2.108;2024-03-08T05:27:04;100223.09;;;4.93;100.00
28935;BME280;16044;52.726;-2.108;2024-03-08T05:29:35;100221.09;;;4.95;100.00
28935;BME280;16044;52.726;-2.108;2024-03-08T05:32:05;100206.97;;;4.93;100.00
28935;BME280;16044;52.726;-2.108;2024-03-08T05:34:36;100204.97;;;4.95;100.00
28935;BME280;16044;52.726;-2.108;2024-03-08T05:37:09;100211.19;;;4.95;100.00
28935;BME280;16044;52.726;-2.108;2024-03-08T05:39:40;100207.97;;;4.92;100.00
28935;BME280;16044;52.726;-2.108;2024-03-08T05:42:11;100195.69;;;4.89;100.00
28935;BME280;16044;52.726;-2.108;2024-03-08T05:44:42;100199.19;;;4.89;100.00
28935;BME280;16044;52.726;-2.108;2024-03-08T05:47:12;100188.31;;;4.91;100.00
28935;BME280;16044;52.726;-2.108;2024-03-08T05:49:43;100198.91;;;4.93;100.00
28935;BME280;16044;52.726;-2.108;2024-03-08T05:52:16;100191.13;;;4.89;100.00
28935;BME280;16044;52.726;-2.108;2024-03-08T05:54:46;100187.47;;;4.91;100.00
28935;BME280;16044;52.726;-2.108;2024-03-08T05:57:17;100177.34;;;4.84;100.00
28935;BME280;16044;52.726;-2.108;2024-03-08T05:59:49;100175.63;;;4.83;100.00
28935;BME280;16044;52.726;-2.108;2024-03-08T06:02:19;100175.94;;;4.80;100.00
28935;BME280;16044;52.726;-2.108;2024-03-08T06:04:50;100166.88;;;4.81;100.00
28935;BME280;16044;52.726;-2.108;2024-03-08T06:07:23;100171.53;;;4.79;100.00
28935;BME280;16044;52.726;-2.108;2024-03-08T06:09:53;100172.25;;;4.81;100.00
28935;BME280;16044;52.726;-2.108;2024-03-08T06:12:23;100166.47;;;4.76;100.00
28935;BME280;16044;52.726;-2.108;2024-03-08T06:14:56;100163.94;;;4.75;100.00
28935;BME280;16044;52.726;-2.108;2024-03-08T06:17:26;100168.03;;;4.79;100.00
28935;BME280;16044;52.726;-2.108;2024-03-08T06:19:57;100165.19;;;4.80;100.00
28935;BME280;16044;52.726;-2.108;2024-03-08T06:22:30;100157.28;;;4.79;100.00
28935;BME280;16044;52.726;-2.108;2024-03-08T06:25:01;100153.59;;;4.80;100.00
28935;BME280;16044;52.726;-2.108;2024-03-08T06:27:31;100150.53;;;4.75;100.00
28935;BME280;16044;52.726;-2.108;2024-03-08T06:30:01;100155.19;;;4.73;100.00
28935;BME280;16044;52.726;-2.108;2024-03-08T06:32:33;100155.34;;;4.71;100.00
28935;BME280;16044;52.726;-2.108;2024-03-08T06:35:05;100154.19;;;4.74;100.00
28935;BME280;16044;52.726;-2.108;2024-03-08T06:37:40;100144.13;;;4.76;100.00
28935;BME280;16044;52.726;-2.108;2024-03-08T06:40:12;100138.63;;;4.77;100.00
28935;BME280;16044;52.726;-2.108;2024-03-08T06:42:43;100132.09;;;4.80;100.00
28935;BME280;16044;52.726;-2.108;2024-03-08T06:45:14;100133.25;;;4.77;100.00
28935;BME280;16044;52.726;-2.108;2024-03-08T06:47:47;100132.97;;;4.80;100.00
28935;BME280;16044;52.726;-2.108;2024-03-08T06:50:18;100126.72;;;4.80;100.00
28935;BME280;16044;52.726;-2.108;2024-03-08T06:52:51;100123.34;;;4.78;100.00
28935;BME280;16044;52.726;-2.108;2024-03-08T06:55:22;100125.91;;;4.79;100.00
28935;BME280;16044;52.726;-2.108;2024-03-08T06:57:52;100132.09;;;4.80;100.00
28935;BME280;16044;52.726;-2.108;2024-03-08T07:00:22;100132.28;;;4.78;100.00
28935;BME280;16044;52.726;-2.108;2024-03-08T07:02:55;100122.22;;;4.80;100.00
28935;BME280;16044;52.726;-2.108;2024-03-08T07:05:28;100125.75;;;4.81;100.00
28935;BME280;16044;52.726;-2.108;2024-03-08T07:08:02;100131.28;;;4.79;100.00
28935;BME280;16044;52.726;-2.108;2024-03-08T07:10:33;100127.59;;;4.80;100.00
28935;BME280;16044;52.726;-2.108;2024-03-08T07:13:04;100129.97;;;4.83;100.00
28935;BME280;16044;52.726;-2.108;2024-03-08T07:15:35;100129.00;;;4.84;100.00
28935;BME280;16044;52.726;-2.108;2024-03-08T07:18:05;100124.31;;;4.86;100.00
28935;BME280;16044;52.726;-2.108;2024-03-08T07:20:36;100130.97;;;4.82;100.00
28935;BME280;16044;52.726;-2.108;2024-03-08T07:23:09;100127.00;;;4.86;100.00
28935;BME280;16044;52.726;-2.108;2024-03-08T07:25:59;100130.38;;;4.88;100.00
28935;BME280;16044;52.726;-2.108;2024-03-08T07:28:30;100124.47;;;4.85;100.00
28935;BME280;16044;52.726;-2.108;2024-03-08T07:31:00;100118.25;;;4.84;100.00
28935;BME280;16044;52.726;-2.108;2024-03-08T07:33:48;100116.41;;;4.85;100.00
28935;BME280;16044;52.726;-2.108;2024-03-08T07:36:20;100118.25;;;4.84;100.00
28935;BME280;16044;52.726;-2.108;2024-03-08T07:38:54;100111.50;;;4.80;100.00
28935;BME280;16044;52.726;-2.108;2024-03-08T07:41:24;100119.09;;;4.85;100.00
28935;BME280;16044;52.726;-2.108;2024-03-08T07:43:56;100105.53;;;4.86;100.00
28935;BME280;16044;52.726;-2.108;2024-03-08T07:46:27;100106.22;;;4.88;100.00
28935;BME280;16044;52.726;-2.108;2024-03-08T07:48:58;100113.97;;;4.92;100.00
28935;BME280;16044;52.726;-2.108;2024-03-08T07:51:29;100109.31;;;4.94;100.00
28935;BME280;16044;52.726;-2.108;2024-03-08T07:54:04;100114.50;;;4.95;100.00
28935;BME280;16044;52.726;-2.108;2024-03-08T07:56:36;100110.13;;;4.94;100.00
28935;BME280;16044;52.726;-2.108;2024-03-08T07:59:06;100098.94;;;4.99;100.00
28935;BME280;16044;52.726;-2.108;2024-03-08T08:01:38;100103.19;;;5.01;100.00
28935;BME280;16044;52.726;-2.108;2024-03-08T08:04:11;100091.00;;;5.07;100.00
28935;BME280;16044;52.726;-2.108;2024-03-08T08:06:43;100094.03;;;5.12;100.00
28935;BME280;16044;52.726;-2.108;2024-03-08T08:09:16;100094.03;;;5.12;100.00
28935;BME280;16044;52.726;-2.108;2024-03-08T08:11:55;100096.28;;;5.17;100.00
28935;BME280;16044;52.726;-2.108;2024-03-08T08:14:26;100091.47;;;5.20;100.00
28935;BME280;16044;52.726;-2.108;2024-03-08T08:16:56;100095.25;;;5.27;100.00
28935;BME280;16044;52.726;-2.108;2024-03-08T08:19:30;100083.56;;;5.37;100.00
28935;BME280;16044;52.726;-2.108;2024-03-08T08:22:02;100087.66;;;5.41;100.00
28935;BME280;16044;52.726;-2.108;2024-03-08T08:24:38;100084.34;;;5.47;100.00
28935;BME280;16044;52.726;-2.108;2024-03-08T08:27:08;100092.09;;;5.50;100.00
28935;BME280;16044;52.726;-2.108;2024-03-08T08:29:39;100085.72;;;5.51;100.00
28935;BME280;16044;52.726;-2.108;2024-03-08T08:32:10;100073.97;;;5.52;100.00
28935;BME280;16044;52.726;-2.108;2024-03-08T08:34:40;100077.34;;;5.54;100.00
28935;BME280;16044;52.726;-2.108;2024-03-08T08:37:11;100070.28;;;5.53;100.00
28935;BME280;16044;52.726;-2.108;2024-03-08T08:39:48;100073.34;;;5.58;100.00
28935;BME280;16044;52.726;-2.108;2024-03-08T08:42:19;100067.34;;;5.64;100.00
28935;BME280;16044;52.726;-2.108;2024-03-08T08:44:51;100062.50;;;5.68;100.00
28935;BME280;16044;52.726;-2.108;2024-03-08T08:47:22;100069.19;;;5.64;100.00
28935;BME280;16044;52.726;-2.108;2024-03-08T08:49:52;100063.72;;;5.74;100.00
28935;BME280;16044;52.726;-2.108;2024-03-08T08:52:23;100066.13;;;5.77;100.00
28935;BME280;16044;52.726;-2.108;2024-03-08T08:54:55;100068.47;;;5.80;100.00
28935;BME280;16044;52.726;-2.108;2024-03-08T08:57:26;100067.16;;;5.84;100.00
28935;BME280;16044;52.726;-2.108;2024-03-08T08:59:57;100068.72;;;5.86;100.00
28935;BME280;16044;52.726;-2.108;2024-03-08T09:02:28;100063.88;;;5.90;100.00
28935;BME280;16044;52.726;-2.108;2024-03-08T09:04:58;100061.19;;;5.90;100.00
28935;BME280;16044;52.726;-2.108;2024-03-08T09:07:29;100058.63;;;5.89;100.00
28935;BME280;16044;52.726;-2.108;2024-03-08T09:10:04;100057.31;;;5.93;100.00
28935;BME280;16044;52.726;-2.108;2024-03-08T09:12:39;100055.47;;;5.93;100.00
28935;BME280;16044;52.726;-2.108;2024-03-08T09:15:10;100052.78;;;5.93;100.00
28935;BME280;16044;52.726;-2.108;2024-03-08T09:17:41;100040.09;;;5.85;100.00
28935;BME280;16044;52.726;-2.108;2024-03-08T09:20:11;100051.09;;;5.92;100.00
28935;BME280;16044;52.726;-2.108;2024-03-08T09:22:43;100036.63;;;5.93;100.00
28935;BME280;16044;52.726;-2.108;2024-03-08T09:25:17;100031.09;;;5.95;100.00
28935;BME280;16044;52.726;-2.108;2024-03-08T09:27:47;100027.97;;;5.99;100.00
28935;BME280;16044;52.726;-2.108;2024-03-08T09:30:17;100025.97;;;6.01;100.00
28935;BME280;16044;52.726;-2.108;2024-03-08T09:32:48;100021.28;;;6.03;100.00
28935;BME280;16044;52.726;-2.108;2024-03-08T09:35:20;100013.50;;;6.00;100.00
28935;BME280;16044;52.726;-2.108;2024-03-08T09:37:50;100020.59;;;6.01;100.00
28935;BME280;16044;52.726;-2.108;2024-03-08T09:40:24;100010.13;;;5.98;100.00
28935;BME280;16044;52.726;-2.108;2024-03-08T09:42:55;100008.47;;;5.97;100.00
28935;BME280;16044;52.726;-2.108;2024-03-08T09:45:25;100005.28;;;6.02;100.00
28935;BME280;16044;52.726;-2.108;2024-03-08T09:47:56;100011.19;;;6.05;100.00
28935;BME280;16044;52.726;-2.108;2024-03-08T09:50:26;100005.16;;;6.12;100.00
28935;BME280;16044;52.726;-2.108;2024-03-08T09:52:58;99998.84;;;6.21;100.00
28935;BME280;16044;52.726;-2.108;2024-03-08T09:55:31;99994.81;;;6.25;100.00
28935;BME280;16044;52.726;-2.108;2024-03-08T09:58:05;99985.75;;;6.26;100.00
28935;BME280;16044;52.726;-2.108;2024-03-08T10:00:48;99982.91;;;6.36;100.00
28935;BME280;16044;52.726;-2.108;2024-03-08T10:03:19;99980.47;;;6.51;100.00
28935;BME280;16044;52.726;-2.108;2024-03-08T10:05:50;99976.97;;;6.67;100.00
28935;BME280;16044;52.726;-2.108;2024-03-08T10:08:20;99959.97;;;6.74;100.00
28935;BME280;16044;52.726;-2.108;2024-03-08T10:10:54;99973.97;;;6.78;100.00
28935;BME280;16044;52.726;-2.108;2024-03-08T10:13:26;99966.22;;;6.75;100.00
28935;BME280;16044;52.726;-2.108;2024-03-08T10:15:57;99961.53;;;6.77;100.00
28935;BME280;16044;52.726;-2.108;2024-03-08T10:18:27;99963.53;;;6.75;100.00
28935;BME280;16044;52.726;-2.108;2024-03-08T10:21:05;99963.03;;;6.71;100.00
28935;BME280;16044;52.726;-2.108;2024-03-08T10:23:37;99968.41;;;6.71;100.00
28935;BME280;16044;52.726;-2.108;2024-03-08T10:26:14;99963.03;;;6.71;100.00
28935;BME280;16044;52.726;-2.108;2024-03-08T10:28:48;99958.94;;;6.67;100.00
28935;BME280;16044;52.726;-2.108;2024-03-08T10:31:21;99947.50;;;6.65;100.00
28935;BME280;16044;52.726;-2.108;2024-03-08T10:33:52;99954.75;;;6.64;100.00
28935;BME280;16044;52.726;-2.108;2024-03-08T10:36:23;99950.88;;;6.67;100.00
28935;BME280;16044;52.726;-2.108;2024-03-08T10:38:53;99931.69;;;6.70;100.00
28935;BME280;16044;52.726;-2.108;2024-03-08T10:41:27;99939.47;;;6.73;100.00
28935;BME280;16044;52.726;-2.108;2024-03-08T10:44:10;99938.44;;;6.74;100.00
28935;BME280;16044;52.726;-2.108;2024-03-08T10:46:58;99931.22;;;6.75;100.00
28935;BME280;16044;52.726;-2.108;2024-03-08T10:49:35;99925.31;;;6.71;100.00
28935;BME280;16044;52.726;-2.108;2024-03-08T10:52:09;99918.75;;;6.74;100.00
28935;BME280;16044;52.726;-2.108;2024-03-08T10:54:41;99924.66;;;6.77;100.00
28935;BME280;16044;52.726;-2.108;2024-03-08T10:57:17;99919.59;;;6.82;100.00
28935;BME280;16044;52.726;-2.108;2024-03-08T10:59:51;99913.34;;;6.82;100.00
28935;BME280;16044;52.726;-2.108;2024-03-08T11:02:28;99920.59;;;6.90;100.00
28935;BME280;16044;52.726;-2.108;2024-03-08T11:04:58;99911.34;;;7.00;100.00
28935;BME280;16044;52.726;-2.108;2024-03-08T11:07:33;99914.25;;;7.07;100.00
28935;BME280;16044;52.726;-2.108;2024-03-08T11:10:04;99903.25;;;7.09;100.00
28935;BME280;16044;52.726;-2.108;2024-03-08T11:12:40;99899.06;;;7.14;100.00
28935;BME280;16044;52.726;-2.108;2024-03-08T11:15:12;99895.34;;;7.15;100.00
28935;BME280;16044;52.726;-2.108;2024-03-08T11:17:47;99897.38;;;7.21;100.00
28935;BME280;16044;52.726;-2.108;2024-03-08T11:20:19;99877.16;;;7.34;100.00
28935;BME280;16044;52.726;-2.108;2024-03-08T11:22:51;99867.84;;;7.45;100.00
28935;BME280;16044;52.726;-2.108;2024-03-08T11:25:37;99871.38;;;7.53;100.00
28935;BME280;16044;52.726;-2.108;2024-03-08T11:28:14;99868.00;;;7.51;100.00
28935;BME280;16044;52.726;-2.108;2024-03-08T11:31:21;99864.28;;;7.52;100.00
28935;BME280;16044;52.726;-2.108;2024-03-08T11:33:53;99860.94;;;7.50;100.00
28935;BME280;16044;52.726;-2.108;2024-03-08T11:36:24;99857.22;;;7.51;100.00
28935;BME280;16044;52.726;-2.108;2024-03-08T11:38:57;99856.19;;;7.52;100.00
28935;BME280;16044;52.726;-2.108;2024-03-08T11:41:43;99857.38;;;7.58;100.00
28935;BME280;16044;52.726;-2.108;2024-03-08T11:44:16;99850.63;;;7.54;100.00
28935;BME280;16044;52.726;-2.108;2024-03-08T11:46:47;99840.50;;;7.64;100.00
28935;BME280;16044;52.726;-2.108;2024-03-08T11:49:17;99843.84;;;7.74;100.00
28935;BME280;16044;52.726;-2.108;2024-03-08T11:51:51;99838.94;;;7.78;100.00
28935;BME280;16044;52.726;-2.108;2024-03-08T11:54:22;99836.50;;;7.91;99.60
28935;BME280;16044;52.726;-2.108;2024-03-08T11:56:53;99836.84;;;7.96;99.44
28935;BME280;16044;52.726;-2.108;2024-03-08T11:59:30;99826.47;;;8.08;99.77
28935;BME280;16044;52.726;-2.108;2024-03-08T12:02:04;99825.78;;;8.14;96.90
28935;BME280;16044;52.726;-2.108;2024-03-08T12:04:37;99823.28;;;8.13;95.49
28935;BME280;16044;52.726;-2.108;2024-03-08T12:07:10;99823.28;;;8.13;95.46
28935;BME280;16044;52.726;-2.108;2024-03-08T12:09:41;99808.78;;;8.06;92.99
28935;BME280;16044;52.726;-2.108;2024-03-08T12:12:13;99813.72;;;8.02;94.58
28935;BME280;16044;52.726;-2.108;2024-03-08T12:14:46;99804.78;;;8.02;96.03
28935;BME280;16044;52.726;-2.108;2024-03-08T12:17:18;99803.06;;;8.00;95.96
28935;BME280;16044;52.726;-2.108;2024-03-08T12:19:49;99807.16;;;7.96;96.30
28935;BME280;16044;52.726;-2.108;2024-03-08T12:22:25;99799.22;;;7.95;96.22
28935;BME280;16044;52.726;-2.108;2024-03-08T12:25:03;99796.59;;;7.87;95.89
28935;BME280;16044;52.726;-2.108;2024-03-08T12:27:37;99791.69;;;7.82;95.96
28935;BME280;16044;52.726;-2.108;2024-03-08T12:30:21;99785.16;;;7.76;96.14
28935;BME280;16044;52.726;-2.108;2024-03-08T12:32:55;99793.91;;;7.78;96.32
28935;BME280;16044;52.726;-2.108;2024-03-08T12:35:29;99777.22;;;7.75;97.71
28935;BME280;16044;52.726;-2.108;2024-03-08T12:38:00;99784.47;;;7.83;97.75
28935;BME280;16044;52.726;-2.108;2024-03-08T12:40:32;99773.84;;;7.81;97.35
28935;BME280;16044;52.726;-2.108;2024-03-08T12:43:07;99773.31;;;7.86;98.05
28935;BME280;16044;52.726;-2.108;2024-03-08T12:45:41;99771.09;;;7.89;97.66
28935;BME280;16044;52.726;-2.108;2024-03-08T12:48:13;99764.31;;;7.93;96.44
28935;BME280;16044;52.726;-2.108;2024-03-08T12:50:44;99759.91;;;8.00;95.50
28935;BME280;16044;52.726;-2.108;2024-03-08T12:53:15;99758.69;;;8.03;93.39
28935;BME280;16044;52.726;-2.108;2024-03-08T12:55:45;99751.25;;;8.05;92.97
28935;BME280;16044;52.726;-2.108;2024-03-08T12:58:16;99753.09;;;8.13;91.92
28935;BME280;16044;52.726;-2.108;2024-03-08T13:00:50;99756.06;;;8.18;90.34
28935;BME280;16044;52.726;-2.108;2024-03-08T13:03:20;99744.09;;;8.20;89.44
28935;BME280;16044;52.726;-2.108;2024-03-08T13:05:51;99741.50;;;8.27;90.51
28935;BME280;16044;52.726;-2.108;2024-03-08T13:08:24;99732.38;;;8.28;89.54